createdAt,value
2022-07-30T00:00:24.671Z,17.88
2022-07-30T00:02:53.167Z,17.86
2022-07-30T00:05:20.894Z,17.84
2022-07-30T00:07:48.241Z,17.82
2022-07-30T00:10:15.277Z,17.80
2022-07-30T00:12:42.078Z,17.79
2022-07-30T00:15:09.719Z,17.79
2022-07-30T00:17:36.540Z,17.75
2022-07-30T00:20:04.081Z,17.72
2022-07-30T00:22:31.753Z,17.70
2022-07-30T00:24:59.123Z,17.68
2022-07-30T00:27:26.464Z,17.67
2022-07-30T00:29:53.302Z,17.67
2022-07-30T00:32:20.260Z,17.65
2022-07-30T00:34:47.105Z,17.65
2022-07-30T00:37:13.909Z,17.65
2022-07-30T00:39:40.741Z,17.65
2022-07-30T00:42:07.639Z,17.67
2022-07-30T00:44:34.482Z,17.70
2022-07-30T00:47:01.948Z,17.72
2022-07-30T00:49:30.531Z,17.72
2022-07-30T00:51:57.459Z,17.74
2022-07-30T00:54:24.405Z,17.77
2022-07-30T00:56:51.621Z,17.80
2022-07-30T00:59:18.508Z,17.83
2022-07-30T01:01:45.456Z,17.86
2022-07-30T01:04:12.341Z,17.90
2022-07-30T01:06:40.068Z,17.93
2022-07-30T01:09:08.048Z,17.93
2022-07-30T01:11:41.198Z,17.91
2022-07-30T01:14:09.593Z,17.87
2022-07-30T01:16:38.050Z,17.84
2022-07-30T01:19:30.145Z,17.79
2022-07-30T01:22:30.877Z,17.75
2022-07-30T01:25:03.983Z,17.68
2022-07-30T01:27:35.332Z,17.65
2022-07-30T01:30:05.682Z,17.62
2022-07-30T01:32:35.764Z,17.61
2022-07-30T01:35:04.772Z,17.61
2022-07-30T01:37:33.744Z,17.60
2022-07-30T01:40:01.093Z,17.62
2022-07-30T01:42:30.087Z,17.63
2022-07-30T01:44:59.124Z,17.64
2022-07-30T01:47:28.331Z,17.65
2022-07-30T01:49:57.629Z,17.69
2022-07-30T01:52:26.958Z,17.73
2022-07-30T01:54:56.271Z,17.77
2022-07-30T01:57:23.542Z,17.82
2022-07-30T01:59:55.033Z,17.82
2022-07-30T02:02:21.956Z,17.83
2022-07-30T02:04:49.488Z,17.84
2022-07-30T02:07:40.600Z,17.83
2022-07-30T02:10:14.541Z,17.79
2022-07-30T02:12:55.647Z,17.79
2022-07-30T02:15:30.561Z,17.78
2022-07-30T02:18:10.619Z,17.78
2022-07-30T02:20:38.388Z,17.79
2022-07-30T02:23:10.545Z,17.79
2022-07-30T02:25:40.833Z,17.80
2022-07-30T02:28:12.045Z,17.80
2022-07-30T02:30:47.337Z,17.82
2022-07-30T02:33:15.653Z,17.85
2022-07-30T02:35:42.731Z,17.88
2022-07-30T02:38:12.001Z,17.93
2022-07-30T02:40:42.116Z,17.97
2022-07-30T02:43:09.892Z,18.02
2022-07-30T02:45:38.102Z,18.12
2022-07-30T02:48:09.079Z,18.23
2022-07-30T02:50:39.632Z,18.33
2022-07-30T02:53:12.461Z,18.45
2022-07-30T02:55:42.655Z,18.54
2022-07-30T02:58:11.590Z,18.63
2022-07-30T03:00:39.113Z,18.68
2022-07-30T03:03:07.738Z,18.73
2022-07-30T03:05:38.553Z,18.75
2022-07-30T03:08:06.159Z,18.78
2022-07-30T03:10:34.076Z,18.78
2022-07-30T03:13:02.462Z,18.79
2022-07-30T03:15:30.810Z,18.83
2022-07-30T03:17:59.753Z,18.89
2022-07-30T03:20:30.951Z,18.97
2022-07-30T03:22:59.664Z,19.06
2022-07-30T03:25:30.959Z,19.18
2022-07-30T03:28:01.888Z,19.31
2022-07-30T03:30:29.334Z,19.48
2022-07-30T03:32:57.293Z,19.66
2022-07-30T03:35:25.111Z,19.86
2022-07-30T03:37:55.504Z,20.09
2022-07-30T03:40:23.492Z,20.32
2022-07-30T03:42:50.841Z,20.57
2022-07-30T03:45:21.756Z,20.82
2022-07-30T03:47:50.738Z,21.02
2022-07-30T03:50:17.645Z,21.15
2022-07-30T03:52:45.073Z,21.31
2022-07-30T03:55:17.178Z,21.50
2022-07-30T03:58:06.254Z,21.67
2022-07-30T04:00:35.249Z,21.87
2022-07-30T04:03:02.169Z,22.02
2022-07-30T04:05:45.002Z,22.22
2022-07-30T04:08:12.456Z,22.15
2022-07-30T04:10:40.813Z,22.35
2022-07-30T04:13:09.571Z,22.53
2022-07-30T04:16:17.719Z,22.65
2022-07-30T04:18:44.536Z,22.77
2022-07-30T04:21:16.998Z,22.92
2022-07-30T04:24:03.676Z,23.08
2022-07-30T04:26:35.607Z,23.18
2022-07-30T04:29:07.630Z,23.35
2022-07-30T04:31:40.476Z,23.45
2022-07-30T04:34:28.039Z,23.64
2022-07-30T04:36:54.903Z,23.67
2022-07-30T04:39:21.666Z,23.84
2022-07-30T04:41:50.028Z,23.99
2022-07-30T04:44:32.239Z,24.51
2022-07-30T04:47:22.053Z,25.43
2022-07-30T04:50:10.219Z,25.89
2022-07-30T04:52:37.611Z,26.36
2022-07-30T04:55:08.234Z,27.04
2022-07-30T04:57:37.606Z,27.65
2022-07-30T05:00:06.894Z,28.21
2022-07-30T05:02:40.130Z,28.77
2022-07-30T05:05:08.736Z,29.40
2022-07-30T05:07:37.986Z,29.48
2022-07-30T05:10:06.869Z,29.69
2022-07-30T05:12:34.668Z,29.85
2022-07-30T05:15:01.504Z,29.78
2022-07-30T05:17:28.293Z,29.48
2022-07-30T05:19:55.114Z,29.38
2022-07-30T05:22:21.877Z,29.42
2022-07-30T05:24:48.668Z,29.54
2022-07-30T05:27:15.934Z,29.20
2022-07-30T05:29:42.704Z,29.78
2022-07-30T05:32:13.834Z,29.67
2022-07-30T05:34:42.416Z,29.46
2022-07-30T05:37:09.851Z,29.01
2022-07-30T05:39:37.022Z,28.83
2022-07-30T05:42:50.499Z,29.28
2022-07-30T05:45:17.306Z,29.06
2022-07-30T05:47:44.384Z,29.24
2022-07-30T05:50:12.716Z,29.45
2022-07-30T05:52:39.768Z,29.94
2022-07-30T05:55:25.140Z,30.13
2022-07-30T05:58:12.159Z,30.19
2022-07-30T06:00:39.415Z,30.01
2022-07-30T06:03:06.821Z,30.07
2022-07-30T06:06:07.975Z,30.35
2022-07-30T06:08:35.177Z,30.64
2022-07-30T06:11:02.227Z,31.49
2022-07-30T06:13:29.777Z,31.94
2022-07-30T06:15:56.824Z,32.49
2022-07-30T06:18:23.741Z,32.49
2022-07-30T06:20:54.345Z,33.10
2022-07-30T06:23:44.654Z,33.17
2022-07-30T06:26:27.197Z,32.97
2022-07-30T06:28:54.029Z,33.14
2022-07-30T06:31:28.289Z,33.48
2022-07-30T06:33:55.349Z,33.55
2022-07-30T06:36:23.201Z,34.05
2022-07-30T06:39:10.195Z,35.01
2022-07-30T06:42:03.584Z,35.20
2022-07-30T06:44:50.433Z,34.29
2022-07-30T06:47:28.938Z,34.70
2022-07-30T06:49:57.388Z,35.28
2022-07-30T06:52:25.526Z,34.79
2022-07-30T06:54:53.402Z,35.05
2022-07-30T06:57:26.883Z,35.10
2022-07-30T06:59:56.124Z,35.69
2022-07-30T07:02:39.984Z,35.68
2022-07-30T07:05:12.664Z,36.10
2022-07-30T07:07:52.503Z,35.77
2022-07-30T07:10:27.614Z,35.16
2022-07-30T07:13:07.982Z,34.91
2022-07-30T07:15:36.935Z,34.43
2022-07-30T07:18:07.061Z,34.47
2022-07-30T07:20:38.936Z,34.41
2022-07-30T07:23:09.150Z,34.63
2022-07-30T07:25:39.896Z,34.89
2022-07-30T07:28:10.912Z,34.94
2022-07-30T07:30:41.554Z,35.23
2022-07-30T07:33:08.697Z,36.34
2022-07-30T07:35:48.457Z,36.84
2022-07-30T07:38:20.158Z,36.06
2022-07-30T07:40:48.215Z,36.34
2022-07-30T07:43:15.727Z,36.16
2022-07-30T07:45:43.306Z,35.52
2022-07-30T07:48:10.219Z,36.17
2022-07-30T07:51:00.355Z,36.41
2022-07-30T07:53:30.225Z,36.18
2022-07-30T07:55:57.396Z,37.51
2022-07-30T07:58:26.595Z,38.01
2022-07-30T08:00:57.506Z,37.10
2022-07-30T08:03:42.371Z,36.90
2022-07-30T08:06:29.126Z,36.87
2022-07-30T08:09:27.951Z,36.80
2022-07-30T08:12:40.882Z,36.62
2022-07-30T08:15:34.171Z,37.20
2022-07-30T08:18:19.234Z,36.68
2022-07-30T08:21:09.202Z,37.50
2022-07-30T08:23:39.685Z,38.37
2022-07-30T08:26:09.031Z,38.43
2022-07-30T08:28:36.883Z,37.59
2022-07-30T08:31:06.718Z,38.98
2022-07-30T08:33:34.198Z,39.40
2022-07-30T08:36:04.014Z,38.98
2022-07-30T08:38:32.695Z,38.93
2022-07-30T08:40:59.612Z,38.92
2022-07-30T08:43:27.196Z,40.52
2022-07-30T08:45:56.974Z,40.35
2022-07-30T08:48:47.449Z,39.86
2022-07-30T08:51:18.169Z,40.55
2022-07-30T08:54:04.481Z,39.49
2022-07-30T08:56:33.129Z,39.55
2022-07-30T08:59:00.703Z,39.00
2022-07-30T09:01:27.660Z,38.23
2022-07-30T09:03:56.700Z,38.25
2022-07-30T09:06:25.833Z,37.77
2022-07-30T09:08:52.710Z,36.97
2022-07-30T09:11:19.525Z,36.54
2022-07-30T09:13:47.108Z,37.11
2022-07-30T09:16:24.337Z,36.81
2022-07-30T09:18:54.507Z,36.74
2022-07-30T09:21:26.751Z,36.05
2022-07-30T09:24:13.696Z,36.25
2022-07-30T09:27:07.637Z,36.71
2022-07-30T09:30:02.247Z,36.43
2022-07-30T09:32:52.802Z,36.78
2022-07-30T09:35:45.525Z,38.41
2022-07-30T09:38:13.158Z,39.06
2022-07-30T09:40:57.569Z,38.42
2022-07-30T09:43:42.380Z,38.26
2022-07-30T09:46:12.762Z,38.94
2022-07-30T09:48:39.722Z,38.68
2022-07-30T09:51:06.847Z,39.44
2022-07-30T09:53:57.020Z,41.11
2022-07-30T09:56:30.024Z,40.56
2022-07-30T09:58:58.736Z,39.77
2022-07-30T10:01:25.550Z,39.26
2022-07-30T10:04:32.870Z,39.05
2022-07-30T10:07:25.487Z,38.72
2022-07-30T10:09:59.753Z,38.85
2022-07-30T10:12:27.929Z,38.92
2022-07-30T10:15:01.936Z,40.39
2022-07-30T10:17:34.413Z,40.22
2022-07-30T10:20:19.953Z,40.81
2022-07-30T10:23:09.054Z,40.03
2022-07-30T10:25:54.840Z,40.36
2022-07-30T10:28:41.564Z,41.64
2022-07-30T10:31:46.702Z,41.67
2022-07-30T10:33:56.501Z,41.22
2022-07-30T10:36:24.949Z,39.93
2022-07-30T10:38:53.174Z,40.55
2022-07-30T10:41:48.229Z,40.36
2022-07-30T10:44:30.194Z,40.92
2022-07-30T10:47:07.218Z,42.60
2022-07-30T10:49:40.547Z,42.24
2022-07-30T10:52:09.052Z,42.14
2022-07-30T10:54:40.401Z,42.37
2022-07-30T10:57:32.221Z,42.60
2022-07-30T10:59:59.846Z,43.55
2022-07-30T11:02:35.662Z,43.41
2022-07-30T11:05:18.394Z,41.67
2022-07-30T11:07:47.389Z,41.18
2022-07-30T11:10:40.299Z,40.63
2022-07-30T11:13:08.615Z,40.64
2022-07-30T11:15:55.056Z,39.77
2022-07-30T11:18:24.985Z,39.76
2022-07-30T11:21:21.454Z,39.33
2022-07-30T11:23:53.443Z,38.92
2022-07-30T11:26:48.977Z,38.72
2022-07-30T11:29:34.186Z,39.05
2022-07-30T11:32:30.276Z,40.43
2022-07-30T11:35:18.068Z,40.76
2022-07-30T11:38:10.119Z,40.55
2022-07-30T11:40:42.414Z,40.17
2022-07-30T11:43:39.391Z,41.33
2022-07-30T11:46:10.505Z,43.00
2022-07-30T11:48:40.715Z,43.39
2022-07-30T11:51:08.770Z,42.07
2022-07-30T11:53:36.035Z,42.08
2022-07-30T11:56:06.650Z,42.57
2022-07-30T11:58:37.273Z,43.52
2022-07-30T12:01:09.321Z,44.58
2022-07-30T12:03:41.035Z,44.08
2022-07-30T12:06:13.736Z,45.54
2022-07-30T12:08:42.446Z,46.61
2022-07-30T12:11:09.796Z,47.03
2022-07-30T12:13:44.961Z,46.67
2022-07-30T12:16:18.552Z,47.87
2022-07-30T12:18:46.992Z,48.48
2022-07-30T12:21:17.761Z,48.62
2022-07-30T12:24:07.659Z,49.21
2022-07-30T12:26:35.375Z,49.08
2022-07-30T12:29:06.687Z,49.07
2022-07-30T12:31:34.120Z,49.12
2022-07-30T12:34:05.248Z,49.20
2022-07-30T12:36:34.056Z,47.57
2022-07-30T12:39:02.940Z,46.36
2022-07-30T12:41:42.953Z,45.28
2022-07-30T12:44:10.159Z,46.78
2022-07-30T12:46:41.337Z,47.07
2022-07-30T12:49:22.480Z,48.08
2022-07-30T12:51:59.761Z,48.34
2022-07-30T12:54:28.439Z,48.54
2022-07-30T12:57:01.861Z,48.55
2022-07-30T12:59:30.521Z,46.77
2022-07-30T13:02:00.212Z,47.04
2022-07-30T13:04:28.001Z,47.83
2022-07-30T13:07:11.726Z,47.24
2022-07-30T13:09:40.003Z,47.14
2022-07-30T13:16:41.892Z,45.04
2022-07-30T13:19:13.551Z,44.36
2022-07-30T13:21:49.815Z,43.38
2022-07-30T13:24:18.454Z,42.21
2022-07-30T13:26:45.988Z,41.69
2022-07-30T13:29:16.725Z,41.47
2022-07-30T13:31:43.676Z,41.56
2022-07-30T13:34:12.022Z,41.72
2022-07-30T13:36:38.960Z,41.39
2022-07-30T13:39:05.722Z,41.07
2022-07-30T13:41:33.281Z,40.96
2022-07-30T13:44:00.123Z,40.91
2022-07-30T13:46:26.823Z,41.39
2022-07-30T13:48:53.724Z,41.65
2022-07-30T13:51:20.784Z,41.82
2022-07-30T13:53:47.630Z,41.56
2022-07-30T13:56:14.390Z,40.98
2022-07-30T13:58:42.455Z,40.93
2022-07-30T14:01:10.151Z,40.83
2022-07-30T14:03:49.773Z,41.26
2022-07-30T14:06:17.273Z,41.21
2022-07-30T14:08:44.032Z,40.99
2022-07-30T14:11:10.862Z,40.80
2022-07-30T14:13:38.096Z,40.85
2022-07-30T14:16:10.684Z,40.89
2022-07-30T14:18:40.812Z,40.87
2022-07-30T14:21:07.687Z,40.68
2022-07-30T14:23:34.473Z,40.48
2022-07-30T14:26:02.376Z,40.27
2022-07-30T14:28:29.239Z,40.00
2022-07-30T14:30:56.158Z,39.40
2022-07-30T14:33:22.871Z,38.93
2022-07-30T14:35:49.667Z,38.65
2022-07-30T14:38:17.151Z,38.19
2022-07-30T14:40:43.978Z,37.78
2022-07-30T14:43:10.677Z,37.20
2022-07-30T14:45:37.514Z,36.81
2022-07-30T14:48:04.572Z,36.60
2022-07-30T14:50:31.348Z,36.27
2022-07-30T14:52:58.120Z,35.90
2022-07-30T14:55:25.227Z,34.52
2022-07-30T14:57:51.992Z,34.69
2022-07-30T15:00:19.419Z,34.53
2022-07-30T15:02:48.144Z,34.41
2022-07-30T15:05:14.957Z,34.44
2022-07-30T15:07:41.799Z,34.14
2022-07-30T15:10:09.038Z,33.93
2022-07-30T15:12:37.132Z,33.70
2022-07-30T15:15:05.602Z,33.55
2022-07-30T15:17:35.295Z,32.96
2022-07-30T15:20:02.124Z,33.03
2022-07-30T15:22:28.994Z,33.13
2022-07-30T15:24:55.746Z,33.11
2022-07-30T15:27:31.814Z,32.95
2022-07-30T15:30:01.034Z,32.78
2022-07-30T15:32:27.717Z,32.54
2022-07-30T15:34:56.248Z,32.35
2022-07-30T15:37:22.965Z,31.93
2022-07-30T15:39:49.767Z,31.90
2022-07-30T15:42:16.502Z,31.86
2022-07-30T15:44:48.599Z,31.72
2022-07-30T15:47:16.051Z,31.59
2022-07-30T15:49:42.728Z,31.44
2022-07-30T15:52:09.531Z,31.28
2022-07-30T15:54:36.229Z,31.17
2022-07-30T15:57:03.088Z,30.94
2022-07-30T15:59:30.332Z,30.79
2022-07-30T16:01:57.878Z,30.67
2022-07-30T16:04:31.159Z,30.57
2022-07-30T16:07:04.429Z,30.39
2022-07-30T16:09:31.275Z,30.30
2022-07-30T16:11:58.745Z,30.19
2022-07-30T16:14:26.169Z,30.08
2022-07-30T16:16:53.110Z,29.95
2022-07-30T16:19:20.347Z,29.84
2022-07-30T16:21:47.134Z,29.71
2022-07-30T16:24:13.921Z,29.60
2022-07-30T16:26:40.619Z,29.39
2022-07-30T16:29:11.894Z,29.32
2022-07-30T16:31:40.461Z,29.27
2022-07-30T16:34:07.237Z,29.15
2022-07-30T16:36:34.187Z,29.04
2022-07-30T16:39:01.369Z,28.89
2022-07-30T16:41:28.303Z,28.78
2022-07-30T16:43:55.008Z,28.69
2022-07-30T16:46:21.865Z,28.53
2022-07-30T16:48:50.587Z,28.43
2022-07-30T16:51:17.745Z,28.28
2022-07-30T16:53:44.608Z,28.16
2022-07-30T16:56:11.313Z,28.03
2022-07-30T16:58:38.053Z,27.91
2022-07-30T17:01:04.899Z,27.72
2022-07-30T17:03:31.692Z,27.63
2022-07-30T17:05:58.393Z,27.46
2022-07-30T17:08:25.510Z,27.33
2022-07-30T17:10:53.160Z,27.21
2022-07-30T17:13:20.529Z,27.02
2022-07-30T17:15:47.917Z,26.90
2022-07-30T17:18:15.682Z,26.76
2022-07-30T17:20:42.972Z,26.62
2022-07-30T17:23:09.720Z,26.51
2022-07-30T17:25:36.460Z,26.34
2022-07-30T17:28:03.479Z,26.19
2022-07-30T17:30:30.525Z,26.03
2022-07-30T17:32:57.895Z,25.87
2022-07-30T17:35:24.895Z,25.74
2022-07-30T17:37:51.839Z,25.59
2022-07-30T17:40:27.149Z,25.48
2022-07-30T17:43:03.769Z,25.33
2022-07-30T17:45:35.012Z,25.18
2022-07-30T17:48:02.732Z,25.01
2022-07-30T17:50:33.672Z,24.86
2022-07-30T17:53:03.562Z,24.69
2022-07-30T17:55:31.773Z,24.57
2022-07-30T17:57:58.559Z,24.45
2022-07-30T18:00:25.722Z,24.35
2022-07-30T18:02:52.581Z,24.27
2022-07-30T18:05:19.464Z,24.15
2022-07-30T18:07:46.286Z,24.05
2022-07-30T18:10:13.167Z,23.93
2022-07-30T18:12:48.887Z,23.81
2022-07-30T18:15:17.630Z,23.70
2022-07-30T18:17:44.733Z,23.59
2022-07-30T18:20:11.938Z,23.51
2022-07-30T18:22:38.727Z,23.41
2022-07-30T18:25:07.985Z,23.33
2022-07-30T18:27:44.907Z,23.25
2022-07-30T18:30:11.853Z,23.17
2022-07-30T18:32:38.602Z,23.12
2022-07-30T18:35:05.830Z,23.02
2022-07-30T18:37:41.262Z,22.99
2022-07-30T18:40:09.688Z,22.96
2022-07-30T18:42:36.414Z,22.91
2022-07-30T18:45:03.706Z,22.93
2022-07-30T18:47:30.425Z,22.89
2022-07-30T18:49:57.276Z,22.86
2022-07-30T18:52:24.108Z,22.85
2022-07-30T18:54:50.866Z,22.79
2022-07-30T18:57:17.681Z,22.73
2022-07-30T18:59:44.461Z,22.73
2022-07-30T19:02:11.243Z,22.70
2022-07-30T19:04:38.028Z,22.68
2022-07-30T19:07:04.825Z,22.63
2022-07-30T19:09:31.640Z,22.62
2022-07-30T19:11:58.429Z,22.60
2022-07-30T19:14:25.224Z,22.56
2022-07-30T19:16:52.582Z,22.49
2022-07-30T19:19:20.861Z,22.45
2022-07-30T19:21:47.656Z,22.41
2022-07-30T19:24:14.383Z,22.36
2022-07-30T19:26:43.090Z,22.34
2022-07-30T19:29:10.023Z,22.30
2022-07-30T19:31:36.836Z,22.29
2022-07-30T19:34:03.773Z,22.25
2022-07-30T19:36:30.653Z,22.23
2022-07-30T19:39:06.879Z,22.19
2022-07-30T19:41:40.555Z,22.17
2022-07-30T19:44:11.323Z,22.18
2022-07-30T19:46:38.753Z,22.18
2022-07-30T19:49:08.415Z,22.17
2022-07-30T19:52:09.868Z,22.15
2022-07-30T19:54:22.061Z,22.15
2022-07-30T19:56:49.198Z,22.15
2022-07-30T19:59:15.964Z,22.16
2022-07-30T20:01:44.221Z,22.10
2022-07-30T20:04:14.707Z,22.08
2022-07-30T20:06:46.063Z,22.03
2022-07-30T20:09:15.053Z,21.99
2022-07-30T20:11:43.618Z,21.97
2022-07-30T20:14:10.503Z,21.97
2022-07-30T20:16:37.854Z,21.95
2022-07-30T20:19:04.905Z,21.93
2022-07-30T20:21:54.276Z,21.91
2022-07-30T20:24:20.365Z,21.90
2022-07-30T20:26:47.868Z,21.88
2022-07-30T20:29:18.987Z,21.86
2022-07-30T20:31:49.641Z,21.82
2022-07-30T20:34:20.691Z,21.82
2022-07-30T20:36:51.240Z,21.79
2022-07-30T20:39:19.938Z,21.74
2022-07-30T20:41:46.886Z,21.72
2022-07-30T20:44:23.612Z,21.64
2022-07-30T20:46:52.926Z,21.63
2022-07-30T20:49:24.094Z,21.59
2022-07-30T20:52:01.277Z,21.55
2022-07-30T20:54:30.311Z,21.53
2022-07-30T20:56:57.439Z,21.49
2022-07-30T20:59:24.906Z,21.44
2022-07-30T21:01:51.718Z,21.41
2022-07-30T21:04:25.378Z,21.39
2022-07-30T21:06:52.699Z,21.38
2022-07-30T21:09:20.014Z,21.35
2022-07-30T21:11:50.383Z,21.29
2022-07-30T21:14:20.034Z,21.26
2022-07-30T21:16:46.944Z,21.21
2022-07-30T21:19:18.499Z,21.16
2022-07-30T21:21:48.137Z,21.07
2022-07-30T21:24:33.960Z,20.96
2022-07-30T21:27:00.884Z,20.84
2022-07-30T21:29:28.845Z,20.82
2022-07-30T21:32:08.889Z,20.76
2022-07-30T21:34:41.948Z,20.68
2022-07-30T21:37:09.346Z,20.65
2022-07-30T21:39:39.958Z,20.62
2022-07-30T21:42:08.460Z,20.55
2022-07-30T21:44:36.254Z,20.46
2022-07-30T21:47:05.718Z,20.41
2022-07-30T21:49:37.737Z,20.36
2022-07-30T21:52:05.178Z,20.32
2022-07-30T21:54:48.166Z,20.35
2022-07-30T21:57:26.177Z,20.35
2022-07-30T21:59:55.169Z,20.35
2022-07-30T22:02:23.249Z,20.35
2022-07-30T22:04:51.474Z,20.36
2022-07-30T22:07:18.319Z,20.37
2022-07-30T22:09:45.198Z,20.36
2022-07-30T22:12:13.032Z,20.38
2022-07-30T22:14:45.391Z,20.42
2022-07-30T22:17:23.475Z,20.44
2022-07-30T22:20:03.374Z,20.48
2022-07-30T22:22:35.529Z,20.49
2022-07-30T22:25:02.704Z,20.51
2022-07-30T22:27:39.722Z,20.50
2022-07-30T22:30:21.345Z,20.50
2022-07-30T22:32:49.584Z,20.51
2022-07-30T22:35:16.772Z,20.51
2022-07-30T22:37:47.633Z,20.52
2022-07-30T22:40:15.213Z,20.50
2022-07-30T22:42:49.735Z,20.48
2022-07-30T22:45:35.973Z,20.47
2022-07-30T22:48:10.089Z,20.42
2022-07-30T22:50:40.160Z,20.38
2022-07-30T22:53:09.771Z,20.36
2022-07-30T22:55:43.362Z,20.34
2022-07-30T22:58:10.644Z,20.32
2022-07-30T23:00:37.374Z,20.29
2022-07-30T23:03:05.668Z,20.27
2022-07-30T23:05:35.582Z,20.25
2022-07-30T23:08:03.637Z,20.21
2022-07-30T23:10:30.446Z,20.14
2022-07-30T23:12:58.905Z,20.15
2022-07-30T23:15:25.679Z,20.10
2022-07-30T23:17:53.261Z,20.02
2022-07-30T23:20:20.971Z,20.00
2022-07-30T23:22:48.302Z,19.97
2022-07-30T23:25:15.520Z,19.94
2022-07-30T23:27:42.972Z,19.87
2022-07-30T23:30:11.381Z,19.81
2022-07-30T23:32:40.007Z,19.75
2022-07-30T23:35:08.824Z,19.69
2022-07-30T23:37:37.938Z,19.63
2022-07-30T23:40:15.645Z,19.53
2022-07-30T23:42:42.334Z,19.47
2022-07-30T23:45:09.481Z,19.41
2022-07-30T23:48:02.159Z,19.32
2022-07-30T23:50:25.223Z,19.25
2022-07-30T23:52:52.039Z,19.21
2022-07-30T23:55:18.938Z,19.14
2022-07-30T23:57:45.718Z,19.08
